sensor_id;sensor_type;location;lat;lon;timestamp;P1;durP1;ratioP1;P2;durP2;ratioP2
14235;SDS011;7202;50.718;7.072;2023-06-19T00:02:00;7.03;;;6.43;;
14235;SDS011;7202;50.718;7.072;2023-06-19T00:04:28;7.00;;;6.30;;
14235;SDS011;7202;50.718;7.072;2023-06-19T00:06:58;7.00;;;6.30;;
14235;SDS011;7202;50.718;7.072;2023-06-19T00:09:27;6.82;;;6.22;;
14235;SDS011;7202;50.718;7.072;2023-06-19T00:11:57;8.70;;;7.22;;
14235;SDS011;7202;50.718;7.072;2023-06-19T00:14:26;7.82;;;6.90;;
14235;SDS011;7202;50.718;7.072;2023-06-19T00:16:55;7.50;;;6.80;;
14235;SDS011;7202;50.718;7.072;2023-06-19T00:19:24;7.43;;;6.72;;
14235;SDS011;7202;50.718;7.072;2023-06-19T00:21:53;7.57;;;6.85;;
14235;SDS011;7202;50.718;7.072;2023-06-19T00:24:24;7.72;;;6.95;;
14235;SDS011;7202;50.718;7.072;2023-06-19T00:26:52;9.52;;;7.03;;
14235;SDS011;7202;50.718;7.072;2023-06-19T00:29:22;7.90;;;7.05;;
14235;SDS011;7202;50.718;7.072;2023-06-19T00:31:56;7.80;;;7.05;;
14235;SDS011;7202;50.718;7.072;2023-06-19T00:34:25;8.20;;;7.40;;
14235;SDS011;7202;50.718;7.072;2023-06-19T00:36:55;7.28;;;6.68;;
14235;SDS011;7202;50.718;7.072;2023-06-19T00:39:24;7.88;;;7.10;;
14235;SDS011;7202;50.718;7.072;2023-06-19T00:41:53;8.55;;;7.68;;
14235;SDS011;7202;50.718;7.072;2023-06-19T00:44:23;8.15;;;7.45;;
14235;SDS011;7202;50.718;7.072;2023-06-19T00:46:55;7.90;;;7.20;;
14235;SDS011;7202;50.718;7.072;2023-06-19T00:49:28;7.40;;;6.63;;
14235;SDS011;7202;50.718;7.072;2023-06-19T00:51:57;7.47;;;6.80;;
14235;SDS011;7202;50.718;7.072;2023-06-19T00:54:26;8.02;;;7.10;;
14235;SDS011;7202;50.718;7.072;2023-06-19T00:56:55;8.02;;;7.22;;
14235;SDS011;7202;50.718;7.072;2023-06-19T00:59:25;8.38;;;7.00;;
14235;SDS011;7202;50.718;7.072;2023-06-19T01:01:55;8.60;;;7.70;;
14235;SDS011;7202;50.718;7.072;2023-06-19T01:04:24;7.50;;;6.85;;
14235;SDS011;7202;50.718;7.072;2023-06-19T01:06:56;7.82;;;7.13;;
14235;SDS011;7202;50.718;7.072;2023-06-19T01:09:38;9.00;;;7.38;;
14235;SDS011;7202;50.718;7.072;2023-06-19T01:12:13;8.27;;;7.43;;
14235;SDS011;7202;50.718;7.072;2023-06-19T01:14:48;9.25;;;7.63;;
14235;SDS011;7202;50.718;7.072;2023-06-19T01:17:25;9.15;;;7.30;;
14235;SDS011;7202;50.718;7.072;2023-06-19T01:19:55;8.52;;;7.40;;
14235;SDS011;7202;50.718;7.072;2023-06-19T01:22:26;10.20;;;7.88;;
14235;SDS011;7202;50.718;7.072;2023-06-19T01:24:58;8.57;;;7.68;;
14235;SDS011;7202;50.718;7.072;2023-06-19T01:27:27;8.25;;;7.55;;
14235;SDS011;7202;50.718;7.072;2023-06-19T01:29:59;8.15;;;7.38;;
14235;SDS011;7202;50.718;7.072;2023-06-19T01:32:31;8.55;;;7.65;;
14235;SDS011;7202;50.718;7.072;2023-06-19T01:35:08;7.70;;;7.00;;
14235;SDS011;7202;50.718;7.072;2023-06-19T01:37:41;8.02;;;7.22;;
14235;SDS011;7202;50.718;7.072;2023-06-19T01:40:11;10.93;;;7.40;;
14235;SDS011;7202;50.718;7.072;2023-06-19T01:42:41;7.68;;;6.97;;
14235;SDS011;7202;50.718;7.072;2023-06-19T01:45:10;8.02;;;7.30;;
14235;SDS011;7202;50.718;7.072;2023-06-19T01:47:39;7.68;;;7.05;;
14235;SDS011;7202;50.718;7.072;2023-06-19T01:50:10;8.60;;;7.55;;
14235;SDS011;7202;50.718;7.072;2023-06-19T01:52:41;8.10;;;7.15;;
14235;SDS011;7202;50.718;7.072;2023-06-19T01:55:11;7.70;;;7.00;;
14235;SDS011;7202;50.718;7.072;2023-06-19T01:57:41;7.85;;;7.03;;
14235;SDS011;7202;50.718;7.072;2023-06-19T02:00:10;8.13;;;7.25;;
14235;SDS011;7202;50.718;7.072;2023-06-19T02:02:42;8.52;;;7.25;;
14235;SDS011;7202;50.718;7.072;2023-06-19T02:05:11;10.13;;;8.10;;
14235;SDS011;7202;50.718;7.072;2023-06-19T02:07:41;7.50;;;6.88;;
14235;SDS011;7202;50.718;7.072;2023-06-19T02:10:10;7.50;;;6.90;;
14235;SDS011;7202;50.718;7.072;2023-06-19T02:12:39;7.57;;;6.88;;
14235;SDS011;7202;50.718;7.072;2023-06-19T02:15:08;9.10;;;7.20;;
14235;SDS011;7202;50.718;7.072;2023-06-19T02:17:37;8.50;;;7.65;;
14235;SDS011;7202;50.718;7.072;2023-06-19T02:20:06;8.50;;;7.80;;
14235;SDS011;7202;50.718;7.072;2023-06-19T02:22:38;8.07;;;7.38;;
14235;SDS011;7202;50.718;7.072;2023-06-19T02:25:08;7.28;;;6.68;;
14235;SDS011;7202;50.718;7.072;2023-06-19T02:27:36;8.18;;;7.47;;
14235;SDS011;7202;50.718;7.072;2023-06-19T02:30:07;9.82;;;7.38;;
14235;SDS011;7202;50.718;7.072;2023-06-19T02:32:36;8.45;;;7.65;;
14235;SDS011;7202;50.718;7.072;2023-06-19T02:35:05;8.73;;;7.55;;
14235;SDS011;7202;50.718;7.072;2023-06-19T02:37:36;8.65;;;7.43;;
14235;SDS011;7202;50.718;7.072;2023-06-19T02:40:08;7.85;;;7.13;;
14235;SDS011;7202;50.718;7.072;2023-06-19T02:42:39;7.50;;;6.80;;
14235;SDS011;7202;50.718;7.072;2023-06-19T02:45:08;8.02;;;7.32;;
14235;SDS011;7202;50.718;7.072;2023-06-19T02:47:37;8.38;;;7.05;;
14235;SDS011;7202;50.718;7.072;2023-06-19T02:50:06;7.80;;;7.10;;
14235;SDS011;7202;50.718;7.072;2023-06-19T02:52:36;8.00;;;6.97;;
14235;SDS011;7202;50.718;7.072;2023-06-19T02:55:04;7.53;;;6.82;;
14235;SDS011;7202;50.718;7.072;2023-06-19T02:57:35;7.60;;;6.97;;
14235;SDS011;7202;50.718;7.072;2023-06-19T03:00:04;7.22;;;6.55;;
14235;SDS011;7202;50.718;7.072;2023-06-19T03:02:36;7.93;;;7.15;;
14235;SDS011;7202;50.718;7.072;2023-06-19T03:05:09;7.90;;;7.10;;
14235;SDS011;7202;50.718;7.072;2023-06-19T03:07:37;8.63;;;7.30;;
14235;SDS011;7202;50.718;7.072;2023-06-19T03:10:06;7.70;;;6.97;;
14235;SDS011;7202;50.718;7.072;2023-06-19T03:12:37;7.70;;;7.05;;
14235;SDS011;7202;50.718;7.072;2023-06-19T03:15:05;7.88;;;6.88;;
14235;SDS011;7202;50.718;7.072;2023-06-19T03:17:39;7.82;;;7.05;;
14235;SDS011;7202;50.718;7.072;2023-06-19T03:20:11;8.00;;;6.82;;
14235;SDS011;7202;50.718;7.072;2023-06-19T03:22:46;7.93;;;7.07;;
14235;SDS011;7202;50.718;7.072;2023-06-19T03:25:16;8.23;;;6.60;;
14235;SDS011;7202;50.718;7.072;2023-06-19T03:27:48;7.25;;;6.55;;
14235;SDS011;7202;50.718;7.072;2023-06-19T03:30:17;7.03;;;6.35;;
14235;SDS011;7202;50.718;7.072;2023-06-19T03:32:49;7.57;;;6.22;;
14235;SDS011;7202;50.718;7.072;2023-06-19T03:35:36;6.90;;;6.25;;
14235;SDS011;7202;50.718;7.072;2023-06-19T03:38:05;7.05;;;6.00;;
14235;SDS011;7202;50.718;7.072;2023-06-19T03:40:34;6.80;;;6.20;;
14235;SDS011;7202;50.718;7.072;2023-06-19T03:43:11;7.47;;;6.53;;
14235;SDS011;7202;50.718;7.072;2023-06-19T03:45:40;6.78;;;6.07;;
14235;SDS011;7202;50.718;7.072;2023-06-19T03:48:10;6.65;;;6.05;;
14235;SDS011;7202;50.718;7.072;2023-06-19T03:50:39;6.32;;;5.78;;
14235;SDS011;7202;50.718;7.072;2023-06-19T03:53:08;6.85;;;6.20;;
14235;SDS011;7202;50.718;7.072;2023-06-19T03:55:36;7.63;;;6.88;;
14235;SDS011;7202;50.718;7.072;2023-06-19T03:58:05;7.20;;;6.50;;
14235;SDS011;7202;50.718;7.072;2023-06-19T04:00:35;7.43;;;6.72;;
14235;SDS011;7202;50.718;7.072;2023-06-19T04:03:04;6.97;;;6.38;;
14235;SDS011;7202;50.718;7.072;2023-06-19T04:05:33;7.90;;;6.43;;
14235;SDS011;7202;50.718;7.072;2023-06-19T04:08:01;6.72;;;6.13;;
14235;SDS011;7202;50.718;7.072;2023-06-19T04:10:31;6.68;;;6.03;;
14235;SDS011;7202;50.718;7.072;2023-06-19T04:13:02;7.05;;;6.38;;
14235;SDS011;7202;50.718;7.072;2023-06-19T04:15:35;8.70;;;6.85;;
14235;SDS011;7202;50.718;7.072;2023-06-19T04:18:04;7.07;;;6.47;;
14235;SDS011;7202;50.718;7.072;2023-06-19T04:20:33;6.72;;;6.07;;
14235;SDS011;7202;50.718;7.072;2023-06-19T04:23:01;6.97;;;6.28;;
14235;SDS011;7202;50.718;7.072;2023-06-19T04:25:30;6.57;;;5.88;;
14235;SDS011;7202;50.718;7.072;2023-06-19T04:27:59;8.25;;;6.32;;
14235;SDS011;7202;50.718;7.072;2023-06-19T04:30:30;6.45;;;5.85;;
14235;SDS011;7202;50.718;7.072;2023-06-19T04:33:00;7.47;;;6.78;;
14235;SDS011;7202;50.718;7.072;2023-06-19T04:35:33;6.68;;;6.07;;
14235;SDS011;7202;50.718;7.072;2023-06-19T04:38:01;6.95;;;6.05;;
14235;SDS011;7202;50.718;7.072;2023-06-19T04:40:30;10.13;;;6.63;;
14235;SDS011;7202;50.718;7.072;2023-06-19T04:42:59;7.60;;;6.38;;
14235;SDS011;7202;50.718;7.072;2023-06-19T04:45:28;6.88;;;5.95;;
14235;SDS011;7202;50.718;7.072;2023-06-19T04:47:56;7.57;;;6.30;;
14235;SDS011;7202;50.718;7.072;2023-06-19T04:50:31;7.72;;;6.38;;
14235;SDS011;7202;50.718;7.072;2023-06-19T04:53:00;7.50;;;6.07;;
14235;SDS011;7202;50.718;7.072;2023-06-19T04:55:28;6.40;;;5.85;;
14235;SDS011;7202;50.718;7.072;2023-06-19T04:57:57;6.60;;;5.72;;
14235;SDS011;7202;50.718;7.072;2023-06-19T05:00:26;7.18;;;6.05;;
14235;SDS011;7202;50.718;7.072;2023-06-19T05:02:55;6.45;;;5.88;;
14235;SDS011;7202;50.718;7.072;2023-06-19T05:05:26;6.47;;;5.47;;
14235;SDS011;7202;50.718;7.072;2023-06-19T05:07:57;6.05;;;5.45;;
14235;SDS011;7202;50.718;7.072;2023-06-19T05:10:25;6.07;;;5.55;;
14235;SDS011;7202;50.718;7.072;2023-06-19T05:12:56;6.60;;;6.00;;
14235;SDS011;7202;50.718;7.072;2023-06-19T05:15:25;6.25;;;5.65;;
14235;SDS011;7202;50.718;7.072;2023-06-19T05:17:53;6.57;;;5.82;;
14235;SDS011;7202;50.718;7.072;2023-06-19T05:20:22;6.47;;;5.88;;
14235;SDS011;7202;50.718;7.072;2023-06-19T05:22:51;5.90;;;5.30;;
14235;SDS011;7202;50.718;7.072;2023-06-19T05:25:21;6.57;;;5.80;;
14235;SDS011;7202;50.718;7.072;2023-06-19T05:27:50;6.97;;;5.38;;
14235;SDS011;7202;50.718;7.072;2023-06-19T05:30:18;5.82;;;5.32;;
14235;SDS011;7202;50.718;7.072;2023-06-19T05:32:47;5.97;;;5.22;;
14235;SDS011;7202;50.718;7.072;2023-06-19T05:35:16;6.32;;;5.72;;
14235;SDS011;7202;50.718;7.072;2023-06-19T05:37:45;6.93;;;5.28;;
14235;SDS011;7202;50.718;7.072;2023-06-19T05:40:14;6.32;;;5.43;;
14235;SDS011;7202;50.718;7.072;2023-06-19T05:42:46;5.28;;;4.78;;
14235;SDS011;7202;50.718;7.072;2023-06-19T05:45:15;5.60;;;5.10;;
14235;SDS011;7202;50.718;7.072;2023-06-19T05:47:43;7.25;;;5.45;;
14235;SDS011;7202;50.718;7.072;2023-06-19T05:50:12;6.80;;;5.00;;
14235;SDS011;7202;50.718;7.072;2023-06-19T05:52:41;6.63;;;5.93;;
14235;SDS011;7202;50.718;7.072;2023-06-19T05:55:10;5.45;;;4.95;;
14235;SDS011;7202;50.718;7.072;2023-06-19T05:57:39;6.60;;;5.25;;
14235;SDS011;7202;50.718;7.072;2023-06-19T06:00:12;5.22;;;4.80;;
14235;SDS011;7202;50.718;7.072;2023-06-19T06:02:42;9.13;;;5.03;;
14235;SDS011;7202;50.718;7.072;2023-06-19T06:05:11;5.18;;;4.70;;
14235;SDS011;7202;50.718;7.072;2023-06-19T06:07:39;6.35;;;4.72;;
14235;SDS011;7202;50.718;7.072;2023-06-19T06:10:08;5.15;;;4.65;;
14235;SDS011;7202;50.718;7.072;2023-06-19T06:12:37;5.32;;;4.78;;
14235;SDS011;7202;50.718;7.072;2023-06-19T06:15:06;5.40;;;4.13;;
14235;SDS011;7202;50.718;7.072;2023-06-19T06:17:37;3.88;;;3.58;;
14235;SDS011;7202;50.718;7.072;2023-06-19T06:20:06;4.97;;;4.05;;
14235;SDS011;7202;50.718;7.072;2023-06-19T06:22:41;5.63;;;3.28;;
14235;SDS011;7202;50.718;7.072;2023-06-19T06:25:10;7.10;;;3.90;;
14235;SDS011;7202;50.718;7.072;2023-06-19T06:27:40;3.92;;;3.55;;
14235;SDS011;7202;50.718;7.072;2023-06-19T06:30:09;3.90;;;3.50;;
14235;SDS011;7202;50.718;7.072;2023-06-19T06:32:40;3.60;;;3.30;;
14235;SDS011;7202;50.718;7.072;2023-06-19T06:35:09;4.38;;;3.20;;
14235;SDS011;7202;50.718;7.072;2023-06-19T06:37:38;4.05;;;3.10;;
14235;SDS011;7202;50.718;7.072;2023-06-19T06:40:07;4.13;;;3.45;;
14235;SDS011;7202;50.718;7.072;2023-06-19T06:42:37;4.97;;;3.60;;
14235;SDS011;7202;50.718;7.072;2023-06-19T06:45:06;4.10;;;3.70;;
14235;SDS011;7202;50.718;7.072;2023-06-19T06:47:38;3.90;;;3.58;;
14235;SDS011;7202;50.718;7.072;2023-06-19T06:50:09;5.70;;;3.53;;
14235;SDS011;7202;50.718;7.072;2023-06-19T06:52:40;4.10;;;3.40;;
14235;SDS011;7202;50.718;7.072;2023-06-19T06:55:08;5.55;;;3.75;;
14235;SDS011;7202;50.718;7.072;2023-06-19T06:57:37;5.75;;;5.15;;
14235;SDS011;7202;50.718;7.072;2023-06-19T07:00:06;6.57;;;5.30;;
14235;SDS011;7202;50.718;7.072;2023-06-19T07:02:38;6.18;;;5.57;;
14235;SDS011;7202;50.718;7.072;2023-06-19T07:05:09;5.88;;;5.22;;
14235;SDS011;7202;50.718;7.072;2023-06-19T07:07:38;8.27;;;5.28;;
14235;SDS011;7202;50.718;7.072;2023-06-19T07:10:07;5.90;;;5.30;;
14235;SDS011;7202;50.718;7.072;2023-06-19T07:12:43;7.78;;;5.25;;
14235;SDS011;7202;50.718;7.072;2023-06-19T07:15:13;6.32;;;5.70;;
14235;SDS011;7202;50.718;7.072;2023-06-19T07:17:41;6.18;;;5.30;;
14235;SDS011;7202;50.718;7.072;2023-06-19T07:20:12;6.97;;;5.75;;
14235;SDS011;7202;50.718;7.072;2023-06-19T07:22:41;4.93;;;4.50;;
14235;SDS011;7202;50.718;7.072;2023-06-19T07:25:10;7.60;;;5.18;;
14235;SDS011;7202;50.718;7.072;2023-06-19T07:27:40;5.32;;;4.82;;
14235;SDS011;7202;50.718;7.072;2023-06-19T07:30:09;5.50;;;5.00;;
14235;SDS011;7202;50.718;7.072;2023-06-19T07:32:46;4.95;;;4.53;;
14235;SDS011;7202;50.718;7.072;2023-06-19T07:35:16;5.57;;;4.97;;
14235;SDS011;7202;50.718;7.072;2023-06-19T07:37:47;5.28;;;4.15;;
14235;SDS011;7202;50.718;7.072;2023-06-19T07:40:16;6.25;;;4.10;;
14235;SDS011;7202;50.718;7.072;2023-06-19T07:42:45;5.20;;;3.83;;
14235;SDS011;7202;50.718;7.072;2023-06-19T07:45:13;3.58;;;3.28;;
14235;SDS011;7202;50.718;7.072;2023-06-19T07:47:42;3.72;;;3.42;;
14235;SDS011;7202;50.718;7.072;2023-06-19T07:50:11;4.13;;;3.13;;
14235;SDS011;7202;50.718;7.072;2023-06-19T07:52:41;3.00;;;2.70;;
14235;SDS011;7202;50.718;7.072;2023-06-19T07:55:09;2.92;;;2.60;;
14235;SDS011;7202;50.718;7.072;2023-06-19T07:57:38;3.17;;;2.30;;
14235;SDS011;7202;50.718;7.072;2023-06-19T08:00:07;3.53;;;2.40;;
14235;SDS011;7202;50.718;7.072;2023-06-19T08:02:47;2.80;;;2.22;;
14235;SDS011;7202;50.718;7.072;2023-06-19T08:05:16;2.58;;;2.20;;
14235;SDS011;7202;50.718;7.072;2023-06-19T08:07:46;1.90;;;1.80;;
14235;SDS011;7202;50.718;7.072;2023-06-19T08:10:14;3.33;;;2.55;;
14235;SDS011;7202;50.718;7.072;2023-06-19T08:12:43;2.13;;;1.70;;
14235;SDS011;7202;50.718;7.072;2023-06-19T08:15:13;1.85;;;1.50;;
14235;SDS011;7202;50.718;7.072;2023-06-19T08:17:42;1.95;;;1.42;;
14235;SDS011;7202;50.718;7.072;2023-06-19T08:20:11;1.55;;;1.45;;
14235;SDS011;7202;50.718;7.072;2023-06-19T08:22:40;2.60;;;1.25;;
14235;SDS011;7202;50.718;7.072;2023-06-19T08:25:10;2.28;;;1.35;;
14235;SDS011;7202;50.718;7.072;2023-06-19T08:27:39;2.65;;;1.50;;
14235;SDS011;7202;50.718;7.072;2023-06-19T08:30:08;6.95;;;1.60;;
14235;SDS011;7202;50.718;7.072;2023-06-19T08:32:36;1.25;;;1.15;;
14235;SDS011;7202;50.718;7.072;2023-06-19T08:35:05;3.65;;;1.33;;
14235;SDS011;7202;50.718;7.072;2023-06-19T08:37:34;2.47;;;1.35;;
14235;SDS011;7202;50.718;7.072;2023-06-19T08:40:03;2.13;;;1.38;;
14235;SDS011;7202;50.718;7.072;2023-06-19T08:42:37;1.42;;;1.33;;
14235;SDS011;7202;50.718;7.072;2023-06-19T08:45:07;1.70;;;1.23;;
14235;SDS011;7202;50.718;7.072;2023-06-19T08:47:38;1.77;;;1.50;;
14235;SDS011;7202;50.718;7.072;2023-06-19T08:50:07;1.50;;;1.40;;
14235;SDS011;7202;50.718;7.072;2023-06-19T08:52:36;2.28;;;1.63;;
14235;SDS011;7202;50.718;7.072;2023-06-19T08:55:07;2.28;;;1.65;;
14235;SDS011;7202;50.718;7.072;2023-06-19T08:57:38;2.65;;;1.90;;
14235;SDS011;7202;50.718;7.072;2023-06-19T09:00:08;1.95;;;1.83;;
14235;SDS011;7202;50.718;7.072;2023-06-19T09:02:41;1.92;;;1.70;;
14235;SDS011;7202;50.718;7.072;2023-06-19T09:05:19;3.90;;;2.10;;
14235;SDS011;7202;50.718;7.072;2023-06-19T09:07:56;3.58;;;1.73;;
14235;SDS011;7202;50.718;7.072;2023-06-19T09:10:29;2.17;;;1.60;;
14235;SDS011;7202;50.718;7.072;2023-06-19T09:13:00;2.45;;;2.10;;
14235;SDS011;7202;50.718;7.072;2023-06-19T09:15:31;1.98;;;1.77;;
14235;SDS011;7202;50.718;7.072;2023-06-19T09:18:01;2.60;;;2.05;;
14235;SDS011;7202;50.718;7.072;2023-06-19T09:20:32;2.88;;;1.90;;
14235;SDS011;7202;50.718;7.072;2023-06-19T09:23:01;1.98;;;1.88;;
14235;SDS011;7202;50.718;7.072;2023-06-19T09:25:30;2.53;;;1.77;;
14235;SDS011;7202;50.718;7.072;2023-06-19T09:28:00;2.35;;;2.08;;
14235;SDS011;7202;50.718;7.072;2023-06-19T09:30:28;3.03;;;2.17;;
14235;SDS011;7202;50.718;7.072;2023-06-19T09:33:05;2.25;;;1.73;;
14235;SDS011;7202;50.718;7.072;2023-06-19T09:35:35;2.22;;;1.90;;
14235;SDS011;7202;50.718;7.072;2023-06-19T09:38:03;3.95;;;1.88;;
14235;SDS011;7202;50.718;7.072;2023-06-19T09:40:33;2.25;;;2.05;;
14235;SDS011;7202;50.718;7.072;2023-06-19T09:43:03;5.00;;;1.83;;
14235;SDS011;7202;50.718;7.072;2023-06-19T09:45:34;2.20;;;2.00;;
14235;SDS011;7202;50.718;7.072;2023-06-19T09:48:03;4.78;;;2.15;;
14235;SDS011;7202;50.718;7.072;2023-06-19T09:50:51;2.55;;;1.90;;
14235;SDS011;7202;50.718;7.072;2023-06-19T09:53:22;2.00;;;1.85;;
14235;SDS011;7202;50.718;7.072;2023-06-19T09:55:51;3.00;;;2.20;;
14235;SDS011;7202;50.718;7.072;2023-06-19T09:58:21;2.38;;;1.95;;
14235;SDS011;7202;50.718;7.072;2023-06-19T10:00:50;4.25;;;2.10;;
14235;SDS011;7202;50.718;7.072;2023-06-19T10:03:19;2.25;;;2.03;;
14235;SDS011;7202;50.718;7.072;2023-06-19T10:05:56;3.13;;;2.38;;
14235;SDS011;7202;50.718;7.072;2023-06-19T10:08:27;2.33;;;1.98;;
14235;SDS011;7202;50.718;7.072;2023-06-19T10:10:58;2.80;;;2.50;;
14235;SDS011;7202;50.718;7.072;2023-06-19T10:13:32;3.67;;;2.42;;
14235;SDS011;7202;50.718;7.072;2023-06-19T10:16:02;3.63;;;2.30;;
14235;SDS011;7202;50.718;7.072;2023-06-19T10:18:31;2.55;;;2.35;;
14235;SDS011;7202;50.718;7.072;2023-06-19T10:21:00;3.42;;;2.20;;
14235;SDS011;7202;50.718;7.072;2023-06-19T10:23:29;3.80;;;2.33;;
14235;SDS011;7202;50.718;7.072;2023-06-19T10:26:05;2.90;;;2.53;;
14235;SDS011;7202;50.718;7.072;2023-06-19T10:28:35;3.03;;;2.60;;
14235;SDS011;7202;50.718;7.072;2023-06-19T10:31:04;2.55;;;2.35;;
14235;SDS011;7202;50.718;7.072;2023-06-19T10:33:35;3.40;;;2.58;;
14235;SDS011;7202;50.718;7.072;2023-06-19T10:36:13;2.78;;;2.47;;
14235;SDS011;7202;50.718;7.072;2023-06-19T10:38:43;3.22;;;2.35;;
14235;SDS011;7202;50.718;7.072;2023-06-19T10:41:14;3.10;;;2.65;;
14235;SDS011;7202;50.718;7.072;2023-06-19T10:43:53;2.25;;;2.05;;
14235;SDS011;7202;50.718;7.072;2023-06-19T10:46:23;4.57;;;2.80;;
14235;SDS011;7202;50.718;7.072;2023-06-19T10:48:57;2.95;;;2.67;;
14235;SDS011;7202;50.718;7.072;2023-06-19T10:51:28;2.63;;;2.42;;
14235;SDS011;7202;50.718;7.072;2023-06-19T10:53:57;3.13;;;2.83;;
14235;SDS011;7202;50.718;7.072;2023-06-19T10:56:26;3.08;;;2.78;;
14235;SDS011;7202;50.718;7.072;2023-06-19T10:59:00;2.75;;;2.50;;
14235;SDS011;7202;50.718;7.072;2023-06-19T11:01:33;3.33;;;2.47;;
14235;SDS011;7202;50.718;7.072;2023-06-19T11:04:04;3.50;;;2.70;;
14235;SDS011;7202;50.718;7.072;2023-06-19T11:06:33;2.75;;;2.35;;
14235;SDS011;7202;50.718;7.072;2023-06-19T11:09:03;4.43;;;2.75;;
14235;SDS011;7202;50.718;7.072;2023-06-19T11:11:36;3.97;;;2.78;;
14235;SDS011;7202;50.718;7.072;2023-06-19T11:14:07;4.90;;;2.85;;
14235;SDS011;7202;50.718;7.072;2023-06-19T11:16:37;3.10;;;2.28;;
14235;SDS011;7202;50.718;7.072;2023-06-19T11:19:07;2.67;;;2.47;;
14235;SDS011;7202;50.718;7.072;2023-06-19T11:21:36;2.85;;;2.55;;
14235;SDS011;7202;50.718;7.072;2023-06-19T11:24:10;4.78;;;2.72;;
14235;SDS011;7202;50.718;7.072;2023-06-19T11:26:40;3.33;;;3.03;;
14235;SDS011;7202;50.718;7.072;2023-06-19T11:29:16;2.67;;;2.47;;
14235;SDS011;7202;50.718;7.072;2023-06-19T11:31:45;2.97;;;2.67;;
14235;SDS011;7202;50.718;7.072;2023-06-19T11:34:15;4.53;;;2.80;;
14235;SDS011;7202;50.718;7.072;2023-06-19T11:36:46;2.83;;;2.45;;
14235;SDS011;7202;50.718;7.072;2023-06-19T11:39:16;2.70;;;2.50;;
14235;SDS011;7202;50.718;7.072;2023-06-19T11:41:44;3.35;;;2.60;;
14235;SDS011;7202;50.718;7.072;2023-06-19T11:44:14;2.72;;;2.17;;
14235;SDS011;7202;50.718;7.072;2023-06-19T11:46:44;3.90;;;2.50;;
14235;SDS011;7202;50.718;7.072;2023-06-19T11:49:14;4.43;;;2.58;;
14235;SDS011;7202;50.718;7.072;2023-06-19T11:51:46;3.42;;;2.65;;
14235;SDS011;7202;50.718;7.072;2023-06-19T11:54:15;4.53;;;2.40;;
14235;SDS011;7202;50.718;7.072;2023-06-19T11:56:44;5.05;;;2.58;;
14235;SDS011;7202;50.718;7.072;2023-06-19T11:59:15;2.92;;;2.50;;
14235;SDS011;7202;50.718;7.072;2023-06-19T12:01:44;3.97;;;2.80;;
14235;SDS011;7202;50.718;7.072;2023-06-19T12:04:14;4.30;;;2.75;;
14235;SDS011;7202;50.718;7.072;2023-06-19T12:06:43;3.67;;;2.55;;
14235;SDS011;7202;50.718;7.072;2023-06-19T12:09:12;2.55;;;2.28;;
14235;SDS011;7202;50.718;7.072;2023-06-19T12:11:40;2.60;;;2.40;;
14235;SDS011;7202;50.718;7.072;2023-06-19T12:14:09;3.20;;;2.53;;
14235;SDS011;7202;50.718;7.072;2023-06-19T12:16:39;2.78;;;2.17;;
14235;SDS011;7202;50.718;7.072;2023-06-19T12:19:08;3.03;;;2.63;;
14235;SDS011;7202;50.718;7.072;2023-06-19T12:21:36;2.95;;;2.40;;
14235;SDS011;7202;50.718;7.072;2023-06-19T12:24:08;2.88;;;2.60;;
14235;SDS011;7202;50.718;7.072;2023-06-19T12:26:37;3.60;;;2.40;;
14235;SDS011;7202;50.718;7.072;2023-06-19T12:29:07;3.17;;;2.30;;
14235;SDS011;7202;50.718;7.072;2023-06-19T12:31:35;3.28;;;2.60;;
14235;SDS011;7202;50.718;7.072;2023-06-19T12:34:05;4.03;;;2.50;;
14235;SDS011;7202;50.718;7.072;2023-06-19T12:36:37;3.10;;;2.47;;
14235;SDS011;7202;50.718;7.072;2023-06-19T12:39:06;3.25;;;2.75;;
14235;SDS011;7202;50.718;7.072;2023-06-19T12:41:41;3.40;;;2.30;;
14235;SDS011;7202;50.718;7.072;2023-06-19T12:44:10;2.58;;;2.38;;
14235;SDS011;7202;50.718;7.072;2023-06-19T12:46:39;3.08;;;2.28;;
14235;SDS011;7202;50.718;7.072;2023-06-19T12:49:09;3.85;;;2.35;;
14235;SDS011;7202;50.718;7.072;2023-06-19T12:51:38;2.65;;;2.45;;
14235;SDS011;7202;50.718;7.072;2023-06-19T12:54:06;2.60;;;2.40;;
14235;SDS011;7202;50.718;7.072;2023-06-19T12:56:35;2.58;;;2.38;;
14235;SDS011;7202;50.718;7.072;2023-06-19T12:59:04;2.75;;;2.45;;
14235;SDS011;7202;50.718;7.072;2023-06-19T13:01:32;2.60;;;2.38;;
14235;SDS011;7202;50.718;7.072;2023-06-19T13:04:01;3.15;;;2.20;;
14235;SDS011;7202;50.718;7.072;2023-06-19T13:06:31;2.60;;;2.40;;
14235;SDS011;7202;50.718;7.072;2023-06-19T13:09:00;3.05;;;2.53;;
14235;SDS011;7202;50.718;7.072;2023-06-19T13:11:32;6.75;;;2.50;;
14235;SDS011;7202;50.718;7.072;2023-06-19T13:14:01;4.95;;;2.45;;
14235;SDS011;7202;50.718;7.072;2023-06-19T13:16:30;2.72;;;2.53;;
14235;SDS011;7202;50.718;7.072;2023-06-19T13:19:13;3.85;;;2.78;;
14235;SDS011;7202;50.718;7.072;2023-06-19T13:21:43;2.85;;;2.58;;
14235;SDS011;7202;50.718;7.072;2023-06-19T13:24:11;3.70;;;2.45;;
14235;SDS011;7202;50.718;7.072;2023-06-19T13:26:40;2.30;;;2.10;;
14235;SDS011;7202;50.718;7.072;2023-06-19T13:29:09;2.95;;;2.40;;
14235;SDS011;7202;50.718;7.072;2023-06-19T13:31:38;2.63;;;2.42;;
14235;SDS011;7202;50.718;7.072;2023-06-19T13:34:07;2.83;;;2.50;;
14235;SDS011;7202;50.718;7.072;2023-06-19T13:36:36;4.53;;;2.50;;
14235;SDS011;7202;50.718;7.072;2023-06-19T13:39:06;2.53;;;2.33;;
14235;SDS011;7202;50.718;7.072;2023-06-19T13:41:35;3.03;;;2.75;;
14235;SDS011;7202;50.718;7.072;2023-06-19T13:44:04;3.30;;;2.40;;
14235;SDS011;7202;50.718;7.072;2023-06-19T13:46:33;3.38;;;2.50;;
14235;SDS011;7202;50.718;7.072;2023-06-19T13:49:02;2.90;;;2.60;;
14235;SDS011;7202;50.718;7.072;2023-06-19T13:51:30;2.80;;;2.60;;
14235;SDS011;7202;50.718;7.072;2023-06-19T13:53:59;2.53;;;2.33;;
14235;SDS011;7202;50.718;7.072;2023-06-19T13:56:31;3.03;;;2.60;;
14235;SDS011;7202;50.718;7.072;2023-06-19T13:59:00;5.45;;;2.83;;
14235;SDS011;7202;50.718;7.072;2023-06-19T14:01:29;3.65;;;2.50;;
14235;SDS011;7202;50.718;7.072;2023-06-19T14:03:59;4.90;;;2.78;;
14235;SDS011;7202;50.718;7.072;2023-06-19T14:06:27;2.90;;;2.55;;
14235;SDS011;7202;50.718;7.072;2023-06-19T14:08:57;3.15;;;2.75;;
14235;SDS011;7202;50.718;7.072;2023-06-19T14:11:25;3.38;;;2.80;;
14235;SDS011;7202;50.718;7.072;2023-06-19T14:13:57;3.28;;;2.55;;
14235;SDS011;7202;50.718;7.072;2023-06-19T14:16:29;3.38;;;2.58;;
14235;SDS011;7202;50.718;7.072;2023-06-19T14:18:58;2.72;;;2.40;;
14235;SDS011;7202;50.718;7.072;2023-06-19T14:21:26;2.75;;;2.40;;
14235;SDS011;7202;50.718;7.072;2023-06-19T14:23:55;2.85;;;2.53;;
14235;SDS011;7202;50.718;7.072;2023-06-19T14:26:24;3.78;;;2.90;;
14235;SDS011;7202;50.718;7.072;2023-06-19T14:28:53;2.38;;;2.17;;
14235;SDS011;7202;50.718;7.072;2023-06-19T14:31:26;2.70;;;2.50;;
14235;SDS011;7202;50.718;7.072;2023-06-19T14:33:55;2.60;;;2.40;;
14235;SDS011;7202;50.718;7.072;2023-06-19T14:36:24;4.72;;;2.58;;
14235;SDS011;7202;50.718;7.072;2023-06-19T14:38:52;3.70;;;2.90;;
14235;SDS011;7202;50.718;7.072;2023-06-19T14:41:21;3.95;;;2.75;;
14235;SDS011;7202;50.718;7.072;2023-06-19T14:43:50;2.80;;;2.60;;
14235;SDS011;7202;50.718;7.072;2023-06-19T14:46:19;4.40;;;3.22;;
14235;SDS011;7202;50.718;7.072;2023-06-19T14:49:06;3.42;;;2.83;;
14235;SDS011;7202;50.718;7.072;2023-06-19T14:51:36;3.67;;;2.70;;
14235;SDS011;7202;50.718;7.072;2023-06-19T14:54:04;2.88;;;2.60;;
14235;SDS011;7202;50.718;7.072;2023-06-19T14:56:33;2.97;;;2.75;;
14235;SDS011;7202;50.718;7.072;2023-06-19T14:59:02;3.40;;;2.65;;
14235;SDS011;7202;50.718;7.072;2023-06-19T15:01:31;3.05;;;2.75;;
14235;SDS011;7202;50.718;7.072;2023-06-19T15:04:00;3.65;;;2.63;;
14235;SDS011;7202;50.718;7.072;2023-06-19T15:06:30;3.60;;;2.45;;
14235;SDS011;7202;50.718;7.072;2023-06-19T15:08:58;2.70;;;2.50;;
14235;SDS011;7202;50.718;7.072;2023-06-19T15:11:30;3.83;;;2.33;;
14235;SDS011;7202;50.718;7.072;2023-06-19T15:13:59;2.72;;;2.50;;
14235;SDS011;7202;50.718;7.072;2023-06-19T15:16:30;2.67;;;2.47;;
14235;SDS011;7202;50.718;7.072;2023-06-19T15:19:03;4.45;;;2.85;;